sensor_id;sensor_type;location;lat;lon;timestamp;P1;durP1;ratioP1;P2;durP2;ratioP2
7665;SDS011;3875;46.562;4.898;2022-07-12T00:01:31;1.30;;;1.20;;
7665;SDS011;3875;46.562;4.898;2022-07-12T00:03:57;1.13;;;1.10;;
7665;SDS011;3875;46.562;4.898;2022-07-12T00:06:22;1.70;;;1.47;;
7665;SDS011;3875;46.562;4.898;2022-07-12T00:08:48;1.50;;;1.40;;
7665;SDS011;3875;46.562;4.898;2022-07-12T00:11:14;1.37;;;1.27;;
7665;SDS011;3875;46.562;4.898;2022-07-12T00:13:40;1.27;;;1.17;;
7665;SDS011;3875;46.562;4.898;2022-07-12T00:16:05;2.10;;;1.33;;
7665;SDS011;3875;46.562;4.898;2022-07-12T00:18:31;6.93;;;1.40;;
7665;SDS011;3875;46.562;4.898;2022-07-12T00:20:57;2.40;;;1.50;;
7665;SDS011;3875;46.562;4.898;2022-07-12T00:23:23;1.80;;;1.50;;
7665;SDS011;3875;46.562;4.898;2022-07-12T00:25:49;1.33;;;1.23;;
7665;SDS011;3875;46.562;4.898;2022-07-12T00:28:15;1.63;;;1.33;;
7665;SDS011;3875;46.562;4.898;2022-07-12T00:30:41;5.83;;;1.43;;
7665;SDS011;3875;46.562;4.898;2022-07-12T00:33:06;1.30;;;1.20;;
7665;SDS011;3875;46.562;4.898;2022-07-12T00:35:33;1.30;;;1.20;;
7665;SDS011;3875;46.562;4.898;2022-07-12T00:37:59;2.60;;;1.20;;
7665;SDS011;3875;46.562;4.898;2022-07-12T00:40:25;1.20;;;1.10;;
7665;SDS011;3875;46.562;4.898;2022-07-12T00:42:50;2.30;;;1.50;;
7665;SDS011;3875;46.562;4.898;2022-07-12T00:45:17;1.97;;;1.50;;
7665;SDS011;3875;46.562;4.898;2022-07-12T00:47:44;1.97;;;1.43;;
7665;SDS011;3875;46.562;4.898;2022-07-12T00:50:12;1.87;;;1.20;;
7665;SDS011;3875;46.562;4.898;2022-07-12T00:52:43;1.60;;;1.50;;
7665;SDS011;3875;46.562;4.898;2022-07-12T00:55:10;1.57;;;1.33;;
7665;SDS011;3875;46.562;4.898;2022-07-12T00:57:37;1.83;;;1.43;;
7665;SDS011;3875;46.562;4.898;2022-07-12T01:00:13;3.33;;;1.40;;
7665;SDS011;3875;46.562;4.898;2022-07-12T01:02:43;1.50;;;1.40;;
7665;SDS011;3875;46.562;4.898;2022-07-12T01:05:09;2.67;;;1.60;;
7665;SDS011;3875;46.562;4.898;2022-07-12T01:07:36;4.67;;;1.50;;
7665;SDS011;3875;46.562;4.898;2022-07-12T01:10:02;1.50;;;1.40;;
7665;SDS011;3875;46.562;4.898;2022-07-12T01:12:29;2.27;;;1.43;;
7665;SDS011;3875;46.562;4.898;2022-07-12T01:14:55;1.50;;;1.40;;
7665;SDS011;3875;46.562;4.898;2022-07-12T01:17:22;2.33;;;1.33;;
7665;SDS011;3875;46.562;4.898;2022-07-12T01:19:49;1.80;;;1.70;;
7665;SDS011;3875;46.562;4.898;2022-07-12T01:22:17;1.50;;;1.37;;
7665;SDS011;3875;46.562;4.898;2022-07-12T01:24:44;1.50;;;1.40;;
7665;SDS011;3875;46.562;4.898;2022-07-12T01:27:13;1.60;;;1.50;;
7665;SDS011;3875;46.562;4.898;2022-07-12T01:29:39;1.60;;;1.50;;
7665;SDS011;3875;46.562;4.898;2022-07-12T01:32:05;1.97;;;1.50;;
7665;SDS011;3875;46.562;4.898;2022-07-12T01:34:54;1.97;;;1.40;;
7665;SDS011;3875;46.562;4.898;2022-07-12T01:37:21;1.70;;;1.40;;
7665;SDS011;3875;46.562;4.898;2022-07-12T01:39:51;1.37;;;1.27;;
7665;SDS011;3875;46.562;4.898;2022-07-12T01:42:21;2.83;;;1.50;;
7665;SDS011;3875;46.562;4.898;2022-07-12T01:44:48;1.60;;;1.50;;
7665;SDS011;3875;46.562;4.898;2022-07-12T01:47:15;1.77;;;1.67;;
7665;SDS011;3875;46.562;4.898;2022-07-12T01:49:42;3.57;;;1.60;;
7665;SDS011;3875;46.562;4.898;2022-07-12T01:52:08;3.83;;;1.60;;
7665;SDS011;3875;46.562;4.898;2022-07-12T01:54:34;1.77;;;1.27;;
7665;SDS011;3875;46.562;4.898;2022-07-12T01:57:01;2.20;;;1.63;;
7665;SDS011;3875;46.562;4.898;2022-07-12T01:59:27;1.30;;;1.20;;
7665;SDS011;3875;46.562;4.898;2022-07-12T02:01:54;2.30;;;1.30;;
7665;SDS011;3875;46.562;4.898;2022-07-12T02:04:21;1.83;;;1.50;;
7665;SDS011;3875;46.562;4.898;2022-07-12T02:06:47;2.40;;;1.53;;
7665;SDS011;3875;46.562;4.898;2022-07-12T02:09:14;1.40;;;1.30;;
7665;SDS011;3875;46.562;4.898;2022-07-12T02:11:41;1.53;;;1.43;;
7665;SDS011;3875;46.562;4.898;2022-07-12T02:14:08;2.93;;;1.50;;
7665;SDS011;3875;46.562;4.898;2022-07-12T02:16:34;3.03;;;1.40;;
7665;SDS011;3875;46.562;4.898;2022-07-12T02:19:00;2.57;;;1.60;;
7665;SDS011;3875;46.562;4.898;2022-07-12T02:21:26;1.80;;;1.40;;
7665;SDS011;3875;46.562;4.898;2022-07-12T02:23:52;1.60;;;1.50;;
7665;SDS011;3875;46.562;4.898;2022-07-12T02:26:18;1.63;;;1.40;;
7665;SDS011;3875;46.562;4.898;2022-07-12T02:28:43;1.50;;;1.40;;
7665;SDS011;3875;46.562;4.898;2022-07-12T02:31:09;1.50;;;1.40;;
7665;SDS011;3875;46.562;4.898;2022-07-12T02:33:35;2.40;;;1.50;;
7665;SDS011;3875;46.562;4.898;2022-07-12T02:36:01;1.50;;;1.40;;
7665;SDS011;3875;46.562;4.898;2022-07-12T02:38:27;3.57;;;1.63;;
7665;SDS011;3875;46.562;4.898;2022-07-12T02:40:54;1.90;;;1.60;;
7665;SDS011;3875;46.562;4.898;2022-07-12T02:43:26;2.60;;;1.47;;
7665;SDS011;3875;46.562;4.898;2022-07-12T02:45:54;1.40;;;1.30;;
7665;SDS011;3875;46.562;4.898;2022-07-12T02:48:21;1.97;;;1.63;;
7665;SDS011;3875;46.562;4.898;2022-07-12T02:50:47;4.03;;;1.73;;
7665;SDS011;3875;46.562;4.898;2022-07-12T02:53:13;1.83;;;1.50;;
7665;SDS011;3875;46.562;4.898;2022-07-12T02:55:40;2.20;;;1.57;;
7665;SDS011;3875;46.562;4.898;2022-07-12T02:58:06;1.90;;;1.60;;
7665;SDS011;3875;46.562;4.898;2022-07-12T03:00:32;2.37;;;1.43;;
7665;SDS011;3875;46.562;4.898;2022-07-12T03:02:58;2.00;;;1.77;;
7665;SDS011;3875;46.562;4.898;2022-07-12T03:05:24;1.60;;;1.50;;
7665;SDS011;3875;46.562;4.898;2022-07-12T03:07:49;1.83;;;1.73;;
7665;SDS011;3875;46.562;4.898;2022-07-12T03:10:15;1.70;;;1.50;;
7665;SDS011;3875;46.562;4.898;2022-07-12T03:12:41;3.03;;;1.60;;
7665;SDS011;3875;46.562;4.898;2022-07-12T03:15:07;1.70;;;1.60;;
7665;SDS011;3875;46.562;4.898;2022-07-12T03:17:33;3.13;;;1.50;;
7665;SDS011;3875;46.562;4.898;2022-07-12T03:19:59;2.10;;;1.50;;
7665;SDS011;3875;46.562;4.898;2022-07-12T03:22:26;1.97;;;1.67;;
7665;SDS011;3875;46.562;4.898;2022-07-12T03:24:52;2.17;;;1.70;;
7665;SDS011;3875;46.562;4.898;2022-07-12T03:27:17;2.27;;;1.40;;
7665;SDS011;3875;46.562;4.898;2022-07-12T03:29:43;2.60;;;1.80;;
7665;SDS011;3875;46.562;4.898;2022-07-12T03:32:09;2.93;;;1.70;;
7665;SDS011;3875;46.562;4.898;2022-07-12T03:34:36;1.80;;;1.70;;
7665;SDS011;3875;46.562;4.898;2022-07-12T03:37:02;1.80;;;1.70;;
7665;SDS011;3875;46.562;4.898;2022-07-12T03:39:28;3.83;;;2.07;;
7665;SDS011;3875;46.562;4.898;2022-07-12T03:41:54;2.67;;;2.10;;
7665;SDS011;3875;46.562;4.898;2022-07-12T03:44:20;3.20;;;1.80;;
7665;SDS011;3875;46.562;4.898;2022-07-12T03:46:46;1.83;;;1.73;;
7665;SDS011;3875;46.562;4.898;2022-07-12T03:49:12;1.77;;;1.67;;
7665;SDS011;3875;46.562;4.898;2022-07-12T03:51:38;1.87;;;1.77;;
7665;SDS011;3875;46.562;4.898;2022-07-12T03:54:07;2.77;;;2.00;;
7665;SDS011;3875;46.562;4.898;2022-07-12T03:56:34;2.37;;;1.80;;
7665;SDS011;3875;46.562;4.898;2022-07-12T03:59:18;4.80;;;1.80;;
7665;SDS011;3875;46.562;4.898;2022-07-12T04:01:44;2.50;;;1.93;;
7665;SDS011;3875;46.562;4.898;2022-07-12T04:04:10;4.77;;;1.90;;
7665;SDS011;3875;46.562;4.898;2022-07-12T04:06:35;1.93;;;1.83;;
7665;SDS011;3875;46.562;4.898;2022-07-12T04:09:01;2.47;;;1.73;;
7665;SDS011;3875;46.562;4.898;2022-07-12T04:11:27;3.50;;;2.03;;
7665;SDS011;3875;46.562;4.898;2022-07-12T04:13:53;2.33;;;1.90;;
7665;SDS011;3875;46.562;4.898;2022-07-12T04:16:19;1.83;;;1.60;;
7665;SDS011;3875;46.562;4.898;2022-07-12T04:18:45;3.07;;;2.23;;
7665;SDS011;3875;46.562;4.898;2022-07-12T04:21:10;2.27;;;2.07;;
7665;SDS011;3875;46.562;4.898;2022-07-12T04:23:37;2.40;;;2.20;;
7665;SDS011;3875;46.562;4.898;2022-07-12T04:26:03;2.27;;;2.07;;
7665;SDS011;3875;46.562;4.898;2022-07-12T04:28:28;1.83;;;1.73;;
7665;SDS011;3875;46.562;4.898;2022-07-12T04:30:54;2.47;;;2.27;;
7665;SDS011;3875;46.562;4.898;2022-07-12T04:33:20;2.93;;;2.10;;
7665;SDS011;3875;46.562;4.898;2022-07-12T04:35:45;2.40;;;2.20;;
7665;SDS011;3875;46.562;4.898;2022-07-12T04:38:11;2.87;;;1.90;;
7665;SDS011;3875;46.562;4.898;2022-07-12T04:40:37;2.10;;;1.90;;
7665;SDS011;3875;46.562;4.898;2022-07-12T04:43:02;4.63;;;2.70;;
7665;SDS011;3875;46.562;4.898;2022-07-12T04:45:28;2.53;;;1.97;;
7665;SDS011;3875;46.562;4.898;2022-07-12T04:47:54;2.90;;;2.40;;
7665;SDS011;3875;46.562;4.898;2022-07-12T04:50:20;2.23;;;2.03;;
7665;SDS011;3875;46.562;4.898;2022-07-12T04:52:45;2.90;;;2.20;;
7665;SDS011;3875;46.562;4.898;2022-07-12T04:55:11;2.10;;;2.00;;
7665;SDS011;3875;46.562;4.898;2022-07-12T04:57:37;2.90;;;2.10;;
7665;SDS011;3875;46.562;4.898;2022-07-12T05:00:03;2.50;;;2.30;;
7665;SDS011;3875;46.562;4.898;2022-07-12T05:02:30;3.13;;;2.23;;
7665;SDS011;3875;46.562;4.898;2022-07-12T05:04:56;2.63;;;2.10;;
7665;SDS011;3875;46.562;4.898;2022-07-12T05:07:22;3.70;;;2.17;;
7665;SDS011;3875;46.562;4.898;2022-07-12T05:09:48;2.23;;;2.03;;
7665;SDS011;3875;46.562;4.898;2022-07-12T05:12:13;2.50;;;2.20;;
7665;SDS011;3875;46.562;4.898;2022-07-12T05:14:39;6.53;;;2.20;;
7665;SDS011;3875;46.562;4.898;2022-07-12T05:17:05;2.67;;;2.30;;
7665;SDS011;3875;46.562;4.898;2022-07-12T05:19:31;3.80;;;1.90;;
7665;SDS011;3875;46.562;4.898;2022-07-12T05:21:56;2.07;;;1.90;;
7665;SDS011;3875;46.562;4.898;2022-07-12T05:24:22;2.70;;;2.50;;
7665;SDS011;3875;46.562;4.898;2022-07-12T05:26:47;1.73;;;1.63;;
7665;SDS011;3875;46.562;4.898;2022-07-12T05:29:13;3.10;;;2.33;;
7665;SDS011;3875;46.562;4.898;2022-07-12T05:31:39;4.20;;;2.50;;
7665;SDS011;3875;46.562;4.898;2022-07-12T05:34:05;2.30;;;2.10;;
7665;SDS011;3875;46.562;4.898;2022-07-12T05:36:30;2.00;;;1.83;;
7665;SDS011;3875;46.562;4.898;2022-07-12T05:38:56;2.43;;;2.23;;
7665;SDS011;3875;46.562;4.898;2022-07-12T05:41:22;4.00;;;2.03;;
7665;SDS011;3875;46.562;4.898;2022-07-12T05:43:48;2.20;;;2.00;;
7665;SDS011;3875;46.562;4.898;2022-07-12T05:46:13;3.47;;;2.20;;
7665;SDS011;3875;46.562;4.898;2022-07-12T05:48:39;2.53;;;2.07;;
7665;SDS011;3875;46.562;4.898;2022-07-12T05:51:05;3.17;;;2.23;;
7665;SDS011;3875;46.562;4.898;2022-07-12T05:53:49;2.77;;;2.23;;
7665;SDS011;3875;46.562;4.898;2022-07-12T05:56:15;2.93;;;2.20;;
7665;SDS011;3875;46.562;4.898;2022-07-12T05:58:41;2.17;;;1.97;;
7665;SDS011;3875;46.562;4.898;2022-07-12T06:01:07;3.70;;;2.33;;
7665;SDS011;3875;46.562;4.898;2022-07-12T06:03:32;2.60;;;2.40;;
7665;SDS011;3875;46.562;4.898;2022-07-12T06:05:58;2.70;;;2.37;;
7665;SDS011;3875;46.562;4.898;2022-07-12T06:08:24;3.43;;;2.60;;
7665;SDS011;3875;46.562;4.898;2022-07-12T06:10:50;2.70;;;2.33;;
7665;SDS011;3875;46.562;4.898;2022-07-12T06:13:16;3.50;;;2.37;;
7665;SDS011;3875;46.562;4.898;2022-07-12T06:15:42;2.40;;;2.20;;
7665;SDS011;3875;46.562;4.898;2022-07-12T06:18:07;3.87;;;2.20;;
7665;SDS011;3875;46.562;4.898;2022-07-12T06:20:33;4.70;;;2.57;;
7665;SDS011;3875;46.562;4.898;2022-07-12T06:22:59;3.77;;;2.20;;
7665;SDS011;3875;46.562;4.898;2022-07-12T06:25:24;2.27;;;2.07;;
7665;SDS011;3875;46.562;4.898;2022-07-12T06:27:50;4.50;;;2.30;;
7665;SDS011;3875;46.562;4.898;2022-07-12T06:30:20;2.40;;;2.20;;
7665;SDS011;3875;46.562;4.898;2022-07-12T06:32:46;2.50;;;2.30;;
7665;SDS011;3875;46.562;4.898;2022-07-12T06:35:13;2.60;;;2.17;;
7665;SDS011;3875;46.562;4.898;2022-07-12T06:37:40;3.33;;;2.40;;
7665;SDS011;3875;46.562;4.898;2022-07-12T06:40:06;4.50;;;2.17;;
7665;SDS011;3875;46.562;4.898;2022-07-12T06:42:33;2.93;;;2.70;;
7665;SDS011;3875;46.562;4.898;2022-07-12T06:44:59;2.33;;;2.20;;
7665;SDS011;3875;46.562;4.898;2022-07-12T06:47:25;2.70;;;2.50;;
7665;SDS011;3875;46.562;4.898;2022-07-12T06:49:51;2.17;;;1.97;;
7665;SDS011;3875;46.562;4.898;2022-07-12T06:52:17;2.30;;;2.10;;
7665;SDS011;3875;46.562;4.898;2022-07-12T06:54:43;4.03;;;2.57;;
7665;SDS011;3875;46.562;4.898;2022-07-12T06:57:08;2.73;;;2.53;;
7665;SDS011;3875;46.562;4.898;2022-07-12T06:59:34;2.30;;;2.13;;
7665;SDS011;3875;46.562;4.898;2022-07-12T07:02:00;2.90;;;2.20;;
7665;SDS011;3875;46.562;4.898;2022-07-12T07:04:26;3.27;;;2.20;;
7665;SDS011;3875;46.562;4.898;2022-07-12T07:06:52;4.57;;;2.57;;
7665;SDS011;3875;46.562;4.898;2022-07-12T07:09:18;4.67;;;2.53;;
7665;SDS011;3875;46.562;4.898;2022-07-12T07:11:43;2.50;;;2.30;;
7665;SDS011;3875;46.562;4.898;2022-07-12T07:14:09;2.37;;;2.17;;
7665;SDS011;3875;46.562;4.898;2022-07-12T07:16:37;3.23;;;2.10;;
7665;SDS011;3875;46.562;4.898;2022-07-12T07:19:03;2.60;;;2.20;;
7665;SDS011;3875;46.562;4.898;2022-07-12T07:21:30;4.03;;;2.33;;
7665;SDS011;3875;46.562;4.898;2022-07-12T07:23:56;2.47;;;2.27;;
7665;SDS011;3875;46.562;4.898;2022-07-12T07:26:22;3.60;;;2.57;;
7665;SDS011;3875;46.562;4.898;2022-07-12T07:28:47;3.20;;;2.10;;
7665;SDS011;3875;46.562;4.898;2022-07-12T07:31:35;2.00;;;1.90;;
7665;SDS011;3875;46.562;4.898;2022-07-12T07:34:02;2.60;;;2.40;;
7665;SDS011;3875;46.562;4.898;2022-07-12T07:36:28;2.40;;;2.20;;
7665;SDS011;3875;46.562;4.898;2022-07-12T07:38:54;2.80;;;2.60;;
7665;SDS011;3875;46.562;4.898;2022-07-12T07:41:20;2.30;;;2.20;;
7665;SDS011;3875;46.562;4.898;2022-07-12T07:43:46;2.33;;;2.03;;
7665;SDS011;3875;46.562;4.898;2022-07-12T07:46:12;2.83;;;2.17;;
7665;SDS011;3875;46.562;4.898;2022-07-12T07:48:37;3.83;;;2.77;;
7665;SDS011;3875;46.562;4.898;2022-07-12T07:51:03;4.20;;;2.23;;
7665;SDS011;3875;46.562;4.898;2022-07-12T07:53:29;2.53;;;2.33;;
7665;SDS011;3875;46.562;4.898;2022-07-12T07:55:54;2.47;;;1.90;;
7665;SDS011;3875;46.562;4.898;2022-07-12T07:58:20;2.17;;;2.07;;
7665;SDS011;3875;46.562;4.898;2022-07-12T08:00:46;2.60;;;2.40;;
7665;SDS011;3875;46.562;4.898;2022-07-12T08:03:14;2.97;;;2.43;;
7665;SDS011;3875;46.562;4.898;2022-07-12T08:05:40;2.80;;;2.20;;
7665;SDS011;3875;46.562;4.898;2022-07-12T08:08:05;5.37;;;2.37;;
7665;SDS011;3875;46.562;4.898;2022-07-12T08:10:31;2.40;;;2.20;;
7665;SDS011;3875;46.562;4.898;2022-07-12T08:12:57;2.20;;;2.10;;
7665;SDS011;3875;46.562;4.898;2022-07-12T08:15:23;4.47;;;2.50;;
7665;SDS011;3875;46.562;4.898;2022-07-12T08:17:49;2.30;;;2.10;;
7665;SDS011;3875;46.562;4.898;2022-07-12T08:20:14;4.00;;;2.00;;
7665;SDS011;3875;46.562;4.898;2022-07-12T08:22:43;3.93;;;1.90;;
7665;SDS011;3875;46.562;4.898;2022-07-12T08:25:10;1.90;;;1.70;;
7665;SDS011;3875;46.562;4.898;2022-07-12T08:27:36;3.07;;;2.17;;
7665;SDS011;3875;46.562;4.898;2022-07-12T08:30:02;2.97;;;2.30;;
7665;SDS011;3875;46.562;4.898;2022-07-12T08:32:28;4.27;;;2.20;;
7665;SDS011;3875;46.562;4.898;2022-07-12T08:34:54;2.60;;;2.00;;
7665;SDS011;3875;46.562;4.898;2022-07-12T08:37:20;2.20;;;2.00;;
7665;SDS011;3875;46.562;4.898;2022-07-12T08:39:46;1.80;;;1.70;;
7665;SDS011;3875;46.562;4.898;2022-07-12T08:42:14;4.07;;;2.50;;
7665;SDS011;3875;46.562;4.898;2022-07-12T08:44:41;4.53;;;2.30;;
7665;SDS011;3875;46.562;4.898;2022-07-12T08:47:07;2.43;;;1.90;;
7665;SDS011;3875;46.562;4.898;2022-07-12T08:49:33;2.20;;;2.00;;
7665;SDS011;3875;46.562;4.898;2022-07-12T08:51:59;2.53;;;2.20;;
7665;SDS011;3875;46.562;4.898;2022-07-12T08:54:24;1.60;;;1.50;;
7665;SDS011;3875;46.562;4.898;2022-07-12T08:56:50;3.83;;;2.03;;
7665;SDS011;3875;46.562;4.898;2022-07-12T09:01:48;1.87;;;1.77;;
7665;SDS011;3875;46.562;4.898;2022-07-12T09:04:18;2.33;;;2.00;;
7665;SDS011;3875;46.562;4.898;2022-07-12T09:06:45;3.97;;;1.90;;
7665;SDS011;3875;46.562;4.898;2022-07-12T09:09:11;2.37;;;2.17;;
7665;SDS011;3875;46.562;4.898;2022-07-12T09:11:54;2.13;;;1.90;;
7665;SDS011;3875;46.562;4.898;2022-07-12T09:14:20;3.83;;;1.50;;
7665;SDS011;3875;46.562;4.898;2022-07-12T09:17:03;7.57;;;1.73;;
7665;SDS011;3875;46.562;4.898;2022-07-12T09:19:34;1.70;;;1.60;;
7665;SDS011;3875;46.562;4.898;2022-07-12T09:22:04;1.80;;;1.70;;
7665;SDS011;3875;46.562;4.898;2022-07-12T09:24:40;2.30;;;1.93;;
7665;SDS011;3875;46.562;4.898;2022-07-12T09:27:05;1.73;;;1.63;;
7665;SDS011;3875;46.562;4.898;2022-07-12T09:29:31;2.83;;;1.97;;
7665;SDS011;3875;46.562;4.898;2022-07-12T09:32:06;2.23;;;1.90;;
7665;SDS011;3875;46.562;4.898;2022-07-12T09:34:57;2.73;;;2.07;;
7665;SDS011;3875;46.562;4.898;2022-07-12T09:37:42;1.90;;;1.80;;
7665;SDS011;3875;46.562;4.898;2022-07-12T09:40:09;2.10;;;1.90;;
7665;SDS011;3875;46.562;4.898;2022-07-12T09:42:35;2.13;;;1.43;;
7665;SDS011;3875;46.562;4.898;2022-07-12T09:45:01;1.67;;;1.57;;
7665;SDS011;3875;46.562;4.898;2022-07-12T09:47:27;8.32;;;2.00;;
7665;SDS011;3875;46.562;4.898;2022-07-12T09:49:53;2.10;;;1.90;;
7665;SDS011;3875;46.562;4.898;2022-07-12T09:52:19;2.23;;;1.93;;
7665;SDS011;3875;46.562;4.898;2022-07-12T09:54:46;1.57;;;1.47;;
7665;SDS011;3875;46.562;4.898;2022-07-12T09:57:35;1.57;;;1.43;;
7665;SDS011;3875;46.562;4.898;2022-07-12T10:00:02;3.30;;;1.70;;
7665;SDS011;3875;46.562;4.898;2022-07-12T10:02:31;1.90;;;1.70;;
7665;SDS011;3875;46.562;4.898;2022-07-12T10:04:58;1.87;;;1.60;;
7665;SDS011;3875;46.562;4.898;2022-07-12T10:07:26;3.35;;;1.80;;
7665;SDS011;3875;46.562;4.898;2022-07-12T10:09:52;1.70;;;1.60;;
7665;SDS011;3875;46.562;4.898;2022-07-12T10:12:19;4.45;;;1.70;;
7665;SDS011;3875;46.562;4.898;2022-07-12T10:14:47;1.58;;;1.48;;
7665;SDS011;3875;46.562;4.898;2022-07-12T10:17:21;1.90;;;1.80;;
7665;SDS011;3875;46.562;4.898;2022-07-12T10:19:48;1.67;;;1.50;;
7665;SDS011;3875;46.562;4.898;2022-07-12T10:22:20;3.00;;;1.53;;
7665;SDS011;3875;46.562;4.898;2022-07-12T10:24:47;1.63;;;1.52;;
7665;SDS011;3875;46.562;4.898;2022-07-12T10:29:40;3.80;;;1.70;;
7665;SDS011;3875;46.562;4.898;2022-07-12T10:34:57;1.92;;;1.67;;
7665;SDS011;3875;46.562;4.898;2022-07-12T10:37:23;2.28;;;2.00;;
7665;SDS011;3875;46.562;4.898;2022-07-12T10:42:38;2.13;;;1.60;;
7665;SDS011;3875;46.562;4.898;2022-07-12T10:45:09;1.90;;;1.70;;
7665;SDS011;3875;46.562;4.898;2022-07-12T10:47:53;2.42;;;2.00;;
7665;SDS011;3875;46.562;4.898;2022-07-12T10:50:41;2.53;;;1.50;;
7665;SDS011;3875;46.562;4.898;2022-07-12T10:58:37;1.50;;;1.40;;
7665;SDS011;3875;46.562;4.898;2022-07-12T11:01:13;1.52;;;1.45;;
7665;SDS011;3875;46.562;4.898;2022-07-12T11:06:21;4.93;;;1.95;;
7665;SDS011;3875;46.562;4.898;2022-07-12T11:08:53;1.92;;;1.65;;
7665;SDS011;3875;46.562;4.898;2022-07-12T11:11:20;1.50;;;1.40;;
7665;SDS011;3875;46.562;4.898;2022-07-12T11:13:47;1.60;;;1.50;;
7665;SDS011;3875;46.562;4.898;2022-07-12T11:16:13;1.60;;;1.48;;
7665;SDS011;3875;46.562;4.898;2022-07-12T11:18:39;1.52;;;1.42;;
7665;SDS011;3875;46.562;4.898;2022-07-12T11:21:05;1.75;;;1.58;;
7665;SDS011;3875;46.562;4.898;2022-07-12T11:23:31;1.67;;;1.58;;
7665;SDS011;3875;46.562;4.898;2022-07-12T11:25:58;1.20;;;1.20;;
7665;SDS011;3875;46.562;4.898;2022-07-12T11:28:27;3.63;;;1.52;;
7665;SDS011;3875;46.562;4.898;2022-07-12T11:31:04;2.47;;;1.40;;
7665;SDS011;3875;46.562;4.898;2022-07-12T11:33:33;2.78;;;1.40;;
7665;SDS011;3875;46.562;4.898;2022-07-12T11:36:09;2.67;;;1.42;;
7665;SDS011;3875;46.562;4.898;2022-07-12T11:38:39;1.70;;;1.60;;
7665;SDS011;3875;46.562;4.898;2022-07-12T11:41:07;1.95;;;1.70;;
7665;SDS011;3875;46.562;4.898;2022-07-12T11:43:35;1.60;;;1.50;;
7665;SDS011;3875;46.562;4.898;2022-07-12T11:46:05;8.10;;;3.20;;
7665;SDS011;3875;46.562;4.898;2022-07-12T11:48:32;1.50;;;1.40;;
7665;SDS011;3875;46.562;4.898;2022-07-12T11:51:02;6.15;;;2.53;;
7665;SDS011;3875;46.562;4.898;2022-07-12T11:53:38;1.52;;;1.42;;
7665;SDS011;3875;46.562;4.898;2022-07-12T11:56:05;1.80;;;1.70;;
7665;SDS011;3875;46.562;4.898;2022-07-12T11:58:34;1.25;;;1.13;;
7665;SDS011;3875;46.562;4.898;2022-07-12T12:01:03;1.85;;;1.63;;
7665;SDS011;3875;46.562;4.898;2022-07-12T12:03:29;5.40;;;1.60;;
7665;SDS011;3875;46.562;4.898;2022-07-12T12:05:57;7.63;;;2.75;;
7665;SDS011;3875;46.562;4.898;2022-07-12T12:08:23;1.90;;;1.70;;
7665;SDS011;3875;46.562;4.898;2022-07-12T12:10:54;2.58;;;1.50;;
7665;SDS011;3875;46.562;4.898;2022-07-12T12:13:24;26.63;;;4.72;;
7665;SDS011;3875;46.562;4.898;2022-07-12T12:15:52;4.80;;;1.77;;
7665;SDS011;3875;46.562;4.898;2022-07-12T12:18:36;1.77;;;1.38;;
7665;SDS011;3875;46.562;4.898;2022-07-12T12:21:11;2.83;;;1.60;;
7665;SDS011;3875;46.562;4.898;2022-07-12T12:23:38;1.58;;;1.23;;
7665;SDS011;3875;46.562;4.898;2022-07-12T12:26:15;3.15;;;1.73;;
7665;SDS011;3875;46.562;4.898;2022-07-12T12:28:48;3.08;;;1.35;;
7665;SDS011;3875;46.562;4.898;2022-07-12T12:31:19;9.40;;;2.13;;
7665;SDS011;3875;46.562;4.898;2022-07-12T12:41:24;4.53;;;1.60;;
7665;SDS011;3875;46.562;4.898;2022-07-12T12:44:00;5.00;;;1.85;;
7665;SDS011;3875;46.562;4.898;2022-07-12T12:46:46;10.10;;;2.60;;
7665;SDS011;3875;46.562;4.898;2022-07-12T12:49:46;4.18;;;1.48;;
7665;SDS011;3875;46.562;4.898;2022-07-12T12:52:13;3.53;;;1.70;;
7665;SDS011;3875;46.562;4.898;2022-07-12T12:54:39;4.30;;;1.20;;
7665;SDS011;3875;46.562;4.898;2022-07-12T12:57:06;11.23;;;2.90;;
7665;SDS011;3875;46.562;4.898;2022-07-12T12:59:33;1.58;;;1.48;;
7665;SDS011;3875;46.562;4.898;2022-07-12T13:01:59;1.50;;;1.40;;
7665;SDS011;3875;46.562;4.898;2022-07-12T13:04:32;8.55;;;2.60;;
7665;SDS011;3875;46.562;4.898;2022-07-12T13:06:58;16.85;;;3.30;;
7665;SDS011;3875;46.562;4.898;2022-07-12T13:09:25;5.30;;;1.70;;
7665;SDS011;3875;46.562;4.898;2022-07-12T13:11:51;1.50;;;1.38;;
7665;SDS011;3875;46.562;4.898;2022-07-12T13:14:17;11.05;;;1.80;;
7665;SDS011;3875;46.562;4.898;2022-07-12T13:16:43;7.88;;;2.15;;
7665;SDS011;3875;46.562;4.898;2022-07-12T13:19:09;4.38;;;1.73;;
7665;SDS011;3875;46.562;4.898;2022-07-12T13:21:34;2.22;;;1.23;;
7665;SDS011;3875;46.562;4.898;2022-07-12T13:24:00;12.88;;;2.90;;
7665;SDS011;3875;46.562;4.898;2022-07-12T13:26:26;1.40;;;1.30;;
7665;SDS011;3875;46.562;4.898;2022-07-12T13:28:53;9.52;;;1.55;;
7665;SDS011;3875;46.562;4.898;2022-07-12T13:31:19;2.10;;;1.20;;
7665;SDS011;3875;46.562;4.898;2022-07-12T13:33:45;1.45;;;1.10;;
7665;SDS011;3875;46.562;4.898;2022-07-12T13:36:11;1.20;;;1.10;;
7665;SDS011;3875;46.562;4.898;2022-07-12T13:38:38;1.27;;;1.17;;
7665;SDS011;3875;46.562;4.898;2022-07-12T13:41:04;1.40;;;1.30;;
7665;SDS011;3875;46.562;4.898;2022-07-12T13:43:30;2.65;;;1.83;;
7665;SDS011;3875;46.562;4.898;2022-07-12T13:45:56;3.08;;;1.38;;
7665;SDS011;3875;46.562;4.898;2022-07-12T13:48:22;1.30;;;1.20;;
7665;SDS011;3875;46.562;4.898;2022-07-12T13:50:48;1.50;;;1.10;;
7665;SDS011;3875;46.562;4.898;2022-07-12T13:53:14;1.30;;;1.20;;
7665;SDS011;3875;46.562;4.898;2022-07-12T13:55:43;1.58;;;1.00;;
7665;SDS011;3875;46.562;4.898;2022-07-12T13:58:10;1.88;;;1.15;;
7665;SDS011;3875;46.562;4.898;2022-07-12T14:00:37;2.05;;;1.30;;
7665;SDS011;3875;46.562;4.898;2022-07-12T14:03:03;1.88;;;1.20;;
7665;SDS011;3875;46.562;4.898;2022-07-12T14:05:28;1.27;;;1.10;;
7665;SDS011;3875;46.562;4.898;2022-07-12T14:07:54;1.10;;;1.00;;
7665;SDS011;3875;46.562;4.898;2022-07-12T14:10:21;1.30;;;1.20;;
7665;SDS011;3875;46.562;4.898;2022-07-12T14:12:47;1.05;;;1.00;;
7665;SDS011;3875;46.562;4.898;2022-07-12T14:15:13;1.10;;;1.00;;
7665;SDS011;3875;46.562;4.898;2022-07-12T14:17:43;0.90;;;0.90;;
7665;SDS011;3875;46.562;4.898;2022-07-12T14:20:11;2.00;;;1.08;;
7665;SDS011;3875;46.562;4.898;2022-07-12T14:22:42;1.20;;;1.10;;
7665;SDS011;3875;46.562;4.898;2022-07-12T14:25:08;0.90;;;0.90;;
7665;SDS011;3875;46.562;4.898;2022-07-12T14:27:35;2.80;;;0.90;;
7665;SDS011;3875;46.562;4.898;2022-07-12T14:30:02;0.95;;;0.90;;
7665;SDS011;3875;46.562;4.898;2022-07-12T14:32:29;3.25;;;1.15;;
7665;SDS011;3875;46.562;4.898;2022-07-12T14:34:55;1.58;;;1.13;;
7665;SDS011;3875;46.562;4.898;2022-07-12T14:37:20;2.25;;;1.75;;
7665;SDS011;3875;46.562;4.898;2022-07-12T14:39:46;2.13;;;1.15;;
7665;SDS011;3875;46.562;4.898;2022-07-12T14:42:13;1.77;;;1.00;;
7665;SDS011;3875;46.562;4.898;2022-07-12T14:44:39;0.93;;;0.88;;
7665;SDS011;3875;46.562;4.898;2022-07-12T14:47:05;0.88;;;0.88;;
7665;SDS011;3875;46.562;4.898;2022-07-12T14:49:31;2.38;;;0.95;;
7665;SDS011;3875;46.562;4.898;2022-07-12T14:51:57;1.05;;;0.95;;
7665;SDS011;3875;46.562;4.898;2022-07-12T14:54:22;3.70;;;0.90;;
7665;SDS011;3875;46.562;4.898;2022-07-12T14:56:48;1.13;;;0.90;;
7665;SDS011;3875;46.562;4.898;2022-07-12T14:59:14;0.75;;;0.75;;
7665;SDS011;3875;46.562;4.898;2022-07-12T15:01:40;0.70;;;0.70;;
7665;SDS011;3875;46.562;4.898;2022-07-12T15:04:06;0.95;;;0.80;;
7665;SDS011;3875;46.562;4.898;2022-07-12T15:06:32;0.80;;;0.80;;
7665;SDS011;3875;46.562;4.898;2022-07-12T15:08:58;0.82;;;0.82;;
7665;SDS011;3875;46.562;4.898;2022-07-12T15:11:24;1.17;;;1.00;;
7665;SDS011;3875;46.562;4.898;2022-07-12T15:13:50;0.88;;;0.88;;
7665;SDS011;3875;46.562;4.898;2022-07-12T15:16:16;0.85;;;0.85;;
7665;SDS011;3875;46.562;4.898;2022-07-12T15:18:42;1.00;;;0.90;;
7665;SDS011;3875;46.562;4.898;2022-07-12T15:21:07;2.67;;;0.75;;
7665;SDS011;3875;46.562;4.898;2022-07-12T15:23:33;0.80;;;0.80;;
7665;SDS011;3875;46.562;4.898;2022-07-12T15:25:59;1.15;;;0.90;;
7665;SDS011;3875;46.562;4.898;2022-07-12T15:28:25;0.88;;;0.88;;
7665;SDS011;3875;46.562;4.898;2022-07-12T15:30:51;0.93;;;0.90;;
7665;SDS011;3875;46.562;4.898;2022-07-12T15:33:16;1.05;;;0.88;;
7665;SDS011;3875;46.562;4.898;2022-07-12T15:35:42;1.75;;;0.93;;
7665;SDS011;3875;46.562;4.898;2022-07-12T15:38:08;4.65;;;1.00;;
7665;SDS011;3875;46.562;4.898;2022-07-12T15:40:34;1.15;;;1.05;;
7665;SDS011;3875;46.562;4.898;2022-07-12T15:43:00;1.10;;;1.00;;